Coeur d'Alene, ID

7:28 AM PDT on June 24, 2017 (GMT -0700)
Coeur D'Alene

Weather History for KCOE - March, 2014

Change the Weather History Date:

Monday, March 17, 2014

  Actual Average Record
Temperature  
Mean Temperature 41 °F -  
Max Temperature 50 °F 46 °F 66 °F (2007)
Min Temperature 32 °F 29 °F 21 °F (2002)
Degree Days  
Heating Degree Days 24    
Moisture  
Dew Point 27 °F    
Average Humidity 60    
Maximum Humidity 93    
Minimum Humidity 30    
Precipitation  
Precipitation 0.10 in - - ()
Sea Level Pressure  
Sea Level Pressure 29.84 in    
Wind  
Wind Speed 10 mph (West)    
Max Wind Speed 21 mph    
Max Gust Speed 34 mph    
Visibility 10 miles    
Events      
Averages and records for this station are not official NWS values.
T = Trace of Precipitation, MM = Missing Value Source: NWS Daily Summary

Daily Weather History Graph

Daily Weather History Graph

Search for Another Location

Airport or City:

Trip Planner

Search our weather history database for the weather conditions in past years. The results will help you decide how hot, cold, wet, or windy it might be!

Date:

Astronomy

Mar. 17, 2014 Rise Set
Actual Time 6:56 AM PDT 6:55 PM PDT
Civil Twilight 6:25 AM PDT 7:26 PM PDT
Nautical Twilight 5:49 AM PDT 8:02 PM PDT
Astronomical Twilight 5:12 AM PDT 8:39 PM PDT
Moon 8:25 PM PDT (3/17) 7:08 AM PDT (3/17)
Length of Visible Light 13h 01m
Length of Day
11h 59m
Full, 99% of the Moon is Illuminated
Mar 17
Full
Mar 23
Last Quarter
Mar 30
New
Apr 7
First Quarter
Apr 15
Full

Hourly Weather History & Observations

Time (PDT) Temp. Windchill Dew Point Humidity Pressure Visibility Wind Dir Wind Speed Gust Speed Precip Events Conditions
12:15 AM 42.8 °F 39.3 °F 37.4 °F 81% 29.67 in 10.0 mi South 5.8 mph - N/A   Overcast
12:35 AM 42.8 °F 41.1 °F 37.4 °F 81% 29.66 in 10.0 mi South 3.5 mph - N/A   Overcast
12:55 AM 41.0 °F 38.0 °F 37.4 °F 87% 29.65 in 10.0 mi SSW 4.6 mph - 0.01 in   Overcast
1:15 AM 41.0 °F 39.0 °F 37.4 °F 87% 29.65 in 10.0 mi SW 3.5 mph - 0.02 in   Overcast
1:35 AM 41.0 °F 39.0 °F 37.4 °F 87% 29.64 in 10.0 mi West 3.5 mph - 0.03 in   Overcast
1:55 AM 41.0 °F 35.8 °F 37.4 °F 87% 29.64 in 10.0 mi West 8.1 mph - 0.05 in   Overcast
2:15 AM 41.0 °F 34.3 °F 37.4 °F 87% 29.64 in 10.0 mi WSW 11.5 mph - 0.02 in   Overcast
2:35 AM 39.2 °F 32.0 °F 37.4 °F 93% 29.62 in 10.0 mi WSW 11.5 mph - 0.02 in   Mostly Cloudy
2:55 AM 39.2 °F 33.0 °F 37.4 °F 93% 29.62 in 10.0 mi WSW 9.2 mph - 0.02 in   Overcast
3:15 AM 39.2 °F 32.0 °F 37.4 °F 93% 29.62 in 9.0 mi West 11.5 mph - 0.01 in   Overcast
3:35 AM 39.2 °F 30.8 °F 37.4 °F 93% 29.62 in 10.0 mi West 15.0 mph - 0.01 in   Overcast
3:55 AM 39.2 °F 32.5 °F 35.6 °F 87% 29.63 in 10.0 mi North 10.4 mph - 0.02 in   Overcast
4:15 AM 39.2 °F 33.0 °F 32.0 °F 75% 29.63 in 10.0 mi West 9.2 mph - N/A   Overcast
4:35 AM 39.2 °F 32.0 °F 33.8 °F 81% 29.63 in 10.0 mi West 11.5 mph - N/A   Overcast
4:55 AM 37.4 °F 29.8 °F 32.0 °F 81% 29.63 in 10.0 mi West 11.5 mph - N/A   Overcast
5:15 AM 37.4 °F 28.9 °F 33.8 °F 87% 29.64 in 10.0 mi West 13.8 mph - N/A   Overcast
5:35 AM 37.4 °F 29.3 °F 33.8 °F 87% 29.66 in 10.0 mi West 12.7 mph - N/A   Overcast
5:55 AM 37.4 °F 29.3 °F 33.8 °F 87% 29.67 in 10.0 mi West 12.7 mph - N/A   Overcast
6:15 AM 37.4 °F 29.8 °F 33.8 °F 87% 29.69 in 10.0 mi West 11.5 mph - N/A   Overcast
6:35 AM 37.4 °F 29.8 °F 33.8 °F 87% 29.70 in 10.0 mi West 11.5 mph - N/A   Overcast
6:55 AM 37.4 °F 29.8 °F 33.8 °F 87% 29.71 in 10.0 mi West 11.5 mph - N/A   Scattered Clouds
7:15 AM 37.4 °F 30.8 °F 33.8 °F 87% 29.73 in 10.0 mi West 9.2 mph - N/A   Clear
7:35 AM 37.4 °F 30.8 °F 33.8 °F 87% 29.74 in 10.0 mi West 9.2 mph - N/A   Clear
7:55 AM 37.4 °F 31.4 °F 33.8 °F 87% 29.76 in 10.0 mi WSW 8.1 mph - N/A   Clear
8:15 AM 37.4 °F 29.8 °F 33.8 °F 87% 29.77 in 10.0 mi WSW 11.5 mph - N/A   Clear
8:35 AM 39.2 °F 31.2 °F 33.8 °F 81% 29.78 in 10.0 mi WSW 13.8 mph - N/A   Clear
8:55 AM 41.0 °F 33.5 °F 33.8 °F 76% 29.79 in 10.0 mi WSW 13.8 mph 21.9 mph N/A   Clear
9:15 AM 41.0 °F 33.5 °F 33.8 °F 76% 29.81 in 10.0 mi WSW 13.8 mph 19.6 mph N/A   Clear
9:35 AM 42.8 °F 36.2 °F 32.0 °F 66% 29.81 in 10.0 mi WSW 12.7 mph - N/A   Clear
9:55 AM 42.8 °F 35.1 °F 30.2 °F 61% 29.82 in 10.0 mi WSW 16.1 mph - N/A   Clear
10:15 AM 44.6 °F 37.8 °F 30.2 °F 57% 29.84 in 10.0 mi West 15.0 mph 20.7 mph N/A   Partly Cloudy
10:35 AM 44.6 °F 37.4 °F 30.2 °F 57% 29.85 in 10.0 mi West 16.1 mph - N/A   Scattered Clouds
10:55 AM 46.4 °F 40.1 °F 28.4 °F 50% 29.85 in 10.0 mi WNW 15.0 mph - N/A   Partly Cloudy
11:15 AM 46.4 °F 39.5 °F 26.6 °F 46% 29.86 in 10.0 mi West 17.3 mph 24.2 mph N/A   Partly Cloudy
11:35 AM 48.2 °F - 26.6 °F 43% 29.87 in 10.0 mi WNW 13.8 mph - N/A   Mostly Cloudy
11:55 AM 48.2 °F - 24.8 °F 40% 29.87 in 10.0 mi West 19.6 mph 25.3 mph N/A   Mostly Cloudy
12:15 PM 48.2 °F - 24.8 °F 40% 29.88 in 10.0 mi WNW 17.3 mph 27.6 mph N/A   Mostly Cloudy
12:35 PM 48.2 °F - 23.0 °F 37% 29.89 in 10.0 mi WNW 19.6 mph - N/A   Mostly Cloudy
12:55 PM 48.2 °F - 21.2 °F 34% 29.89 in 10.0 mi NW 15.0 mph 25.3 mph N/A   Mostly Cloudy
1:15 PM 48.2 °F - 19.4 °F 32% 29.89 in 10.0 mi WNW 16.1 mph 34.5 mph N/A   Scattered Clouds
1:35 PM 48.2 °F - 21.2 °F 34% 29.90 in 10.0 mi WNW 16.1 mph 26.5 mph N/A   Mostly Cloudy
1:55 PM 48.2 °F - 21.2 °F 34% 29.90 in 10.0 mi NNW 12.7 mph - N/A   Overcast
2:15 PM 48.2 °F - 21.2 °F 34% 29.91 in 10.0 mi WNW 17.3 mph 21.9 mph N/A   Overcast
2:35 PM 48.2 °F - 21.2 °F 34% 29.91 in 10.0 mi NW 12.7 mph 23.0 mph N/A   Overcast
2:55 PM 48.2 °F - 19.4 °F 32% 29.91 in 10.0 mi NW 11.5 mph - N/A   Overcast
3:15 PM 48.2 °F - 21.2 °F 34% 29.92 in 10.0 mi NNW 12.7 mph 20.7 mph N/A   Overcast
3:35 PM 48.2 °F - 19.4 °F 32% 29.92 in 10.0 mi NW 13.8 mph 21.9 mph N/A   Overcast
3:55 PM 48.2 °F - 19.4 °F 32% 29.92 in 10.0 mi WNW 16.1 mph 21.9 mph N/A   Overcast
4:15 PM 50.0 °F - 21.2 °F 32% 29.93 in 10.0 mi WNW 16.1 mph 21.9 mph N/A   Overcast
4:35 PM 50.0 °F - 19.4 °F 30% 29.93 in 10.0 mi NW 17.3 mph 21.9 mph N/A   Mostly Cloudy
4:55 PM 48.2 °F - 19.4 °F 32% 29.94 in 10.0 mi NW 12.7 mph - N/A   Partly Cloudy
5:15 PM 48.2 °F - 19.4 °F 32% 29.94 in 10.0 mi WNW 19.6 mph - N/A   Clear
5:35 PM 48.2 °F - 19.4 °F 32% 29.95 in 10.0 mi WNW 16.1 mph - N/A   Scattered Clouds
5:55 PM 48.2 °F - 21.2 °F 34% 29.96 in 10.0 mi West 20.7 mph - N/A   Overcast
6:15 PM 48.2 °F - 19.4 °F 32% 29.97 in 10.0 mi NW 11.5 mph - N/A   Overcast
6:35 PM 46.4 °F 41.9 °F 19.4 °F 34% 29.97 in 10.0 mi NNW 9.2 mph - N/A   Mostly Cloudy
6:55 PM 42.8 °F 38.6 °F 21.2 °F 42% 29.98 in 10.0 mi NNW 6.9 mph - N/A   Partly Cloudy
7:15 PM 41.0 °F 35.8 °F 21.2 °F 45% 29.99 in 10.0 mi NW 8.1 mph - N/A   Clear
7:35 PM 41.0 °F 35.8 °F 19.4 °F 42% 29.99 in 10.0 mi NW 8.1 mph - N/A   Clear
7:55 PM 39.2 °F 35.0 °F 21.2 °F 49% 30.00 in 10.0 mi NW 5.8 mph - N/A   Partly Cloudy
8:15 PM 35.6 °F 32.8 °F 19.4 °F 52% 30.01 in 10.0 mi NW 3.5 mph - N/A   Scattered Clouds
8:35 PM 35.6 °F - 19.4 °F 52% 30.02 in 10.0 mi Calm Calm - N/A   Partly Cloudy
8:55 PM 33.8 °F 25.8 °F 17.6 °F 52% 30.02 in 10.0 mi North 10.4 mph - N/A   Partly Cloudy
9:15 PM 33.8 °F 29.6 °F 19.4 °F 56% 30.03 in 10.0 mi SE 4.6 mph - N/A   Clear
9:35 PM 37.4 °F 34.9 °F 19.4 °F 48% 30.04 in 10.0 mi SE 3.5 mph - N/A   Clear
9:55 PM 37.4 °F - 17.6 °F 45% 30.04 in 10.0 mi Calm Calm - N/A   Clear
10:15 PM 35.6 °F 29.9 °F 17.6 °F 48% 30.05 in 10.0 mi SE 6.9 mph - N/A   Clear
10:35 PM 33.8 °F 29.6 °F 19.4 °F 56% 30.06 in 10.0 mi SSE 4.6 mph - N/A   Clear
10:55 PM 33.8 °F 30.8 °F 19.4 °F 56% 30.07 in 10.0 mi SW 3.5 mph - N/A   Scattered Clouds
11:15 PM 32.0 °F 26.4 °F 19.4 °F 60% 30.07 in 10.0 mi South 5.8 mph - N/A   Partly Cloudy
11:35 PM 33.8 °F - 23.0 °F 65% 30.08 in 10.0 mi Calm Calm - N/A   Scattered Clouds
11:55 PM 32.0 °F - 23.0 °F 69% 30.08 in 10.0 mi Calm Calm - N/A   Scattered Clouds